createdAt,value
2023-11-01T00:00:30.047Z,99948.75
2023-11-01T00:03:00.262Z,99949.06
2023-11-01T00:05:27.122Z,99950.13
2023-11-01T00:07:54.106Z,99946.38
2023-11-01T00:10:20.866Z,99954.72
2023-11-01T00:12:47.647Z,99960.91
2023-11-01T00:15:14.352Z,99946.38
2023-11-01T00:17:41.208Z,99948.53
2023-11-01T00:20:11.565Z,99968.97
2023-11-01T00:22:38.301Z,99968.50
2023-11-01T00:25:05.409Z,99974.97
2023-11-01T00:27:32.326Z,99976.84
2023-11-01T00:30:01.166Z,99984.44
2023-11-01T00:32:28.037Z,99981.44
2023-11-01T00:34:54.866Z,99987.31
2023-11-01T00:37:21.615Z,99996.19
2023-11-01T00:39:48.482Z,99994.31
2023-11-01T00:42:15.255Z,99990.03
2023-11-01T00:44:42.024Z,100000.00
2023-11-01T00:47:08.820Z,99987.03
2023-11-01T00:49:35.487Z,99991.59
2023-11-01T00:52:04.547Z,99984.63
2023-11-01T00:54:31.269Z,99976.56
2023-11-01T00:56:57.981Z,99977.34
2023-11-01T00:59:25.176Z,99984.63
2023-11-01T01:01:52.760Z,100002.38
2023-11-01T01:04:19.539Z,99990.50
2023-11-01T01:06:46.240Z,99995.41
2023-11-01T01:09:13.012Z,99995.41
2023-11-01T01:11:43.493Z,100001.06
2023-11-01T01:14:10.333Z,99996.78
2023-11-01T01:16:37.081Z,99996.50
2023-11-01T01:19:04.649Z,99991.41
2023-11-01T01:21:31.363Z,99994.88
2023-11-01T01:23:58.395Z,100007.28
2023-11-01T01:26:25.900Z,99992.19
2023-11-01T01:28:52.686Z,99983.06
2023-11-01T01:31:19.444Z,99986.81
2023-11-01T01:33:46.208Z,99993.81
2023-11-01T01:36:13.214Z,100001.38
2023-11-01T01:38:40.233Z,100010.56
2023-11-01T01:41:07.206Z,100011.34
2023-11-01T01:43:34.434Z,99994.41
2023-11-01T01:46:08.906Z,100005.44
2023-11-01T01:48:37.185Z,100003.06
2023-11-01T01:51:06.265Z,99997.38
2023-11-01T01:53:34.435Z,100003.56
2023-11-01T01:56:01.612Z,100004.66
2023-11-01T01:58:29.117Z,100005.75
2023-11-01T02:00:57.720Z,100005.75
2023-11-01T02:03:24.853Z,99995.28
2023-11-01T02:05:53.150Z,100002.53
2023-11-01T02:08:23.482Z,100001.47
2023-11-01T02:10:50.309Z,100016.00
2023-11-01T02:13:17.334Z,100002.53
2023-11-01T02:15:46.160Z,100011.72
2023-11-01T02:18:13.658Z,100011.72
2023-11-01T02:20:47.056Z,100012.81
2023-11-01T02:23:14.516Z,100010.13
2023-11-01T02:25:42.936Z,100004.75
2023-11-01T02:28:14.393Z,100010.44
2023-11-01T02:30:41.109Z,100008.53
2023-11-01T02:33:07.976Z,100003.97
2023-11-01T02:35:34.919Z,100006.34
2023-11-01T02:38:01.628Z,100001.75
2023-11-01T02:40:28.314Z,100003.97
2023-11-01T02:42:55.045Z,100004.75
2023-11-01T02:45:21.948Z,100004.75
2023-11-01T02:47:49.131Z,100003.16
2023-11-01T02:50:17.519Z,100008.53
2023-11-01T02:52:45.066Z,100012.81
2023-11-01T02:55:13.553Z,100020.09
2023-11-01T02:57:40.816Z,100023.06
2023-11-01T03:00:09.930Z,100031.16
2023-11-01T03:02:37.454Z,100025.75
2023-11-01T03:05:05.257Z,100022.28
2023-11-01T03:07:32.341Z,100020.69
2023-11-01T03:10:01.635Z,100019.91
2023-11-01T03:12:28.318Z,100021.00
2023-11-01T03:14:55.117Z,100025.28
2023-11-01T03:17:22.029Z,100022.06
2023-11-01T03:19:49.026Z,100022.59
2023-11-01T03:22:15.729Z,100022.91
2023-11-01T03:24:42.402Z,100027.44
2023-11-01T03:27:09.146Z,100025.88
2023-11-01T03:29:35.859Z,100033.44
2023-11-01T03:32:08.322Z,100025.88
2023-11-01T03:34:35.162Z,100022.69
2023-11-01T03:37:02.593Z,100025.38
2023-11-01T03:39:29.289Z,100025.66
2023-11-01T03:41:57.006Z,100026.44
2023-11-01T03:44:23.734Z,100031.81
2023-11-01T03:46:50.488Z,100037.22
2023-11-01T03:49:17.233Z,100026.44
2023-11-01T03:51:43.930Z,100015.69
2023-11-01T03:54:10.587Z,100023.75
2023-11-01T03:56:43.219Z,100029.12
2023-11-01T03:59:10.018Z,100022.16
2023-11-01T04:01:37.025Z,100027.84
2023-11-01T04:04:07.306Z,100034.03
2023-11-01T04:06:34.083Z,100036.19
2023-11-01T04:09:02.029Z,100031.62
2023-11-01T04:11:28.837Z,100039.41
2023-11-01T04:13:55.542Z,100037.22
2023-11-01T04:16:25.828Z,100035.03
2023-11-01T04:18:52.625Z,100037.41
2023-11-01T04:21:19.300Z,100039.22
2023-11-01T04:23:46.052Z,100053.97
2023-11-01T04:26:12.921Z,100051.00
2023-11-01T04:28:42.787Z,100048.81
2023-11-01T04:31:09.429Z,100047.22
2023-11-01T04:33:38.984Z,100049.59
2023-11-01T04:36:06.093Z,100046.12
2023-11-01T04:38:32.885Z,100044.53
2023-11-01T04:40:59.874Z,100037.84
2023-11-01T04:43:30.073Z,100040.22
2023-11-01T04:45:56.886Z,100051.81
2023-11-01T04:48:23.632Z,100057.41
2023-11-01T04:50:50.508Z,100053.59
2023-11-01T04:53:17.635Z,100043.63
2023-11-01T04:55:46.880Z,100042.25
2023-11-01T04:58:15.007Z,100039.25
2023-11-01T05:00:42.000Z,100042.44
2023-11-01T05:03:08.898Z,100037.88
2023-11-01T05:05:35.699Z,100050.22
2023-11-01T05:08:02.434Z,100048.03
2023-11-01T05:10:29.215Z,100040.47
2023-11-01T05:12:55.904Z,100040.97
2023-11-01T05:15:22.588Z,100041.25
2023-11-01T05:17:49.446Z,100031.28
2023-11-01T05:20:19.073Z,100033.50
2023-11-01T05:22:45.818Z,100031.88
2023-11-01T05:25:12.569Z,100041.06
2023-11-01T05:27:39.294Z,100036.25
2023-11-01T05:30:06.779Z,100049.72
2023-11-01T05:32:33.497Z,100042.75
2023-11-01T05:35:03.560Z,100044.44
2023-11-01T05:37:30.281Z,100056.78
2023-11-01T05:39:57.084Z,100062.16
2023-11-01T05:42:23.844Z,100055.78
2023-11-01T05:44:50.628Z,100047.72
2023-11-01T05:47:17.725Z,100053.59
2023-11-01T05:49:44.555Z,100056.56
2023-11-01T05:52:11.286Z,100059.00
2023-11-01T05:54:38.010Z,100056.78
2023-11-01T05:57:07.788Z,100061.09
2023-11-01T05:59:34.724Z,100065.38
2023-11-01T06:02:02.096Z,100065.06
2023-11-01T06:04:28.839Z,100073.94
2023-11-01T06:06:55.852Z,100075.56
2023-11-01T06:09:22.518Z,100072.88
2023-11-01T06:11:49.350Z,100077.94
2023-11-01T06:14:16.114Z,100085.72
2023-11-01T06:16:42.990Z,100092.72
2023-11-01T06:19:09.683Z,100092.72
2023-11-01T06:21:36.451Z,100095.91
2023-11-01T06:24:03.214Z,100093.00
2023-11-01T06:26:30.061Z,100090.59
2023-11-01T06:28:56.966Z,100088.50
2023-11-01T06:31:23.764Z,100088.00
2023-11-01T06:33:50.558Z,100085.31
2023-11-01T06:36:17.368Z,100080.53
2023-11-01T06:38:44.220Z,100078.09
2023-11-01T06:41:10.967Z,100076.62
2023-11-01T06:43:37.723Z,100077.59
2023-11-01T06:46:08.209Z,100094.87
2023-11-01T06:48:38.460Z,100088.84
2023-11-01T06:51:06.106Z,100092.13
2023-11-01T06:53:35.952Z,100096.88
2023-11-01T06:56:02.700Z,100087.34
2023-11-01T06:58:35.690Z,100082.09
2023-11-01T07:01:02.840Z,100075.03
2023-11-01T07:03:30.353Z,100091.63
2023-11-01T07:05:57.256Z,100083.47
2023-11-01T07:08:30.973Z,100087.66
2023-11-01T07:10:58.817Z,100087.06
2023-11-01T07:13:27.785Z,100083.81
2023-11-01T07:16:02.373Z,100077.31
2023-11-01T07:18:29.849Z,100079.53
2023-11-01T07:20:57.288Z,100077.91
2023-11-01T07:23:28.040Z,100084.69
2023-11-01T07:25:57.959Z,100082.28
2023-11-01T07:28:24.819Z,100083.59
2023-11-01T07:30:51.616Z,100079.00
2023-11-01T07:33:18.891Z,100078.94
2023-11-01T07:35:45.739Z,100076.72
2023-11-01T07:38:15.439Z,100073.44
2023-11-01T07:40:46.462Z,100073.66
2023-11-01T07:43:20.436Z,100077.84
2023-11-01T07:45:50.695Z,100082.94
2023-11-01T07:48:23.179Z,100081.84
2023-11-01T07:50:54.657Z,100078.56
2023-11-01T07:53:21.542Z,100085.75
2023-11-01T07:55:50.429Z,100085.97
2023-11-01T07:58:18.928Z,100091.84
2023-11-01T08:00:45.764Z,100091.25
2023-11-01T08:03:12.593Z,100096.31
2023-11-01T08:05:42.180Z,100094.94
2023-11-01T08:08:10.228Z,100096.53
2023-11-01T08:10:37.136Z,100098.94
2023-11-01T08:13:04.146Z,100105.13
2023-11-01T08:15:33.572Z,100101.31
2023-11-01T08:18:06.266Z,100113.91
2023-11-01T08:20:33.132Z,100113.09
2023-11-01T08:23:06.158Z,100112.50
2023-11-01T08:25:32.860Z,100108.72
2023-11-01T08:28:01.861Z,100104.63
2023-11-01T08:30:31.986Z,100097.34
2023-11-01T08:32:59.298Z,100110.03
2023-11-01T08:35:31.702Z,100117.00
2023-11-01T08:37:58.843Z,100123.72
2023-11-01T08:40:25.913Z,100123.13
2023-11-01T08:42:55.715Z,100117.12
2023-11-01T08:45:28.435Z,100114.94
2023-11-01T08:47:55.449Z,100117.34
2023-11-01T08:50:25.246Z,100105.97
2023-11-01T08:52:52.046Z,100115.34
2023-11-01T08:55:21.419Z,100113.94
2023-11-01T08:57:48.506Z,100116.34
2023-11-01T09:00:26.681Z,100114.13
2023-11-01T09:02:58.928Z,100115.94
2023-11-01T09:05:25.851Z,100120.53
2023-11-01T09:07:53.150Z,100119.94
2023-11-01T09:10:19.905Z,100114.53
2023-11-01T09:12:47.851Z,100118.81
2023-11-01T09:15:14.607Z,100112.84
2023-11-01T09:17:41.570Z,100103.66
2023-11-01T09:20:13.316Z,100101.78
2023-11-01T09:22:44.209Z,100104.16
2023-11-01T09:25:13.971Z,100094.19
2023-11-01T09:27:41.465Z,100100.09
2023-11-01T09:30:14.633Z,100092.78
2023-11-01T09:32:45.227Z,100102.47
2023-11-01T09:35:16.036Z,100102.47
2023-11-01T09:37:46.363Z,100102.94
2023-11-01T09:40:16.631Z,100099.16
2023-11-01T09:42:47.088Z,100099.16
2023-11-01T09:45:22.040Z,100102.34
2023-11-01T09:47:56.865Z,100095.25
2023-11-01T09:50:26.921Z,100101.94
2023-11-01T09:52:59.806Z,100098.94
2023-11-01T09:55:28.967Z,100095.16
2023-11-01T09:58:00.107Z,100090.25
2023-11-01T10:00:30.979Z,100089.94
2023-11-01T10:03:01.750Z,100093.94
2023-11-01T10:05:31.431Z,100090.12
2023-11-01T10:08:03.891Z,100085.38
2023-11-01T10:10:39.272Z,100072.38
2023-11-01T10:13:13.005Z,100076.19
2023-11-01T10:15:40.473Z,100067.78
2023-11-01T10:18:10.751Z,100072.88
2023-11-01T10:20:41.681Z,100059.41
2023-11-01T10:23:12.325Z,100063.69
2023-11-01T10:25:39.306Z,100053.38
2023-11-01T10:28:18.436Z,100045.00
2023-11-01T10:30:52.277Z,100045.78
2023-11-01T10:33:20.325Z,100042.59
2023-11-01T10:36:04.092Z,100037.19
2023-11-01T10:38:35.696Z,100022.91
2023-11-01T10:41:03.658Z,100014.53
2023-11-01T10:43:32.468Z,100011.22
2023-11-01T10:46:01.514Z,100008.22
2023-11-01T10:48:34.535Z,100005.22
2023-11-01T10:51:06.054Z,100000.31
2023-11-01T10:53:36.970Z,99994.63
2023-11-01T10:56:04.503Z,99983.81
2023-11-01T10:58:40.581Z,99991.91
2023-11-01T11:01:30.286Z,99995.72
2023-11-01T11:04:08.751Z,99990.34
2023-11-01T11:06:55.488Z,99983.81
2023-11-01T11:12:21.306Z,99983.03
2023-11-01T11:14:51.683Z,99981.94
2023-11-01T11:17:20.561Z,99974.66
2023-11-01T11:20:15.171Z,99972.47
2023-11-01T11:23:03.772Z,99970.09
2023-11-01T11:25:50.591Z,99964.69
2023-11-01T11:28:20.332Z,99955.50
2023-11-01T11:31:00.035Z,99954.69
2023-11-01T11:33:48.244Z,99955.50
2023-11-01T11:36:19.589Z,99942.47
2023-11-01T11:38:53.834Z,99943.28
2023-11-01T11:41:21.944Z,99932.19
2023-11-01T11:44:12.589Z,99936.47
2023-11-01T11:46:48.243Z,99926.47
2023-11-01T11:49:20.845Z,99935.88
2023-11-01T11:51:58.614Z,99929.38
2023-11-01T11:54:31.014Z,99928.25
2023-11-01T11:57:08.783Z,99917.16
2023-11-01T11:59:36.719Z,99911.44
2023-11-01T12:02:08.352Z,99909.25
2023-11-01T12:04:38.609Z,99909.25
2023-11-01T12:07:09.289Z,99906.25
2023-11-01T12:09:36.892Z,99897.81
2023-11-01T12:12:11.571Z,99897.81
2023-11-01T12:14:43.793Z,99894.03
2023-11-01T12:17:12.496Z,99887.22
2023-11-01T12:19:51.325Z,99887.22
2023-11-01T12:22:21.362Z,99878.03
2023-11-01T12:24:49.887Z,99875.00
2023-11-01T12:27:44.338Z,99876.59
2023-11-01T12:30:21.554Z,99872.81
2023-11-01T12:32:50.630Z,99860.41
2023-11-01T12:35:21.078Z,99862.31
2023-11-01T12:37:50.838Z,99853.44
2023-11-01T12:40:20.838Z,99854.53
2023-11-01T12:42:50.051Z,99840.25
2023-11-01T12:45:18.399Z,99841.06
2023-11-01T12:47:50.460Z,99837.25
2023-11-01T12:50:36.223Z,99831.84
2023-11-01T12:53:03.982Z,99826.44
2023-11-01T12:55:30.784Z,99828.03
2023-11-01T12:57:57.840Z,99825.66
2023-11-01T13:00:28.906Z,99808.69
2023-11-01T13:02:55.807Z,99814.09
2023-11-01T13:05:22.626Z,99809.78
2023-11-01T13:07:54.274Z,99807.09
2023-11-01T13:10:21.133Z,99810.09
2023-11-01T13:12:49.089Z,99808.50
2023-11-01T13:15:17.610Z,99808.50
2023-11-01T13:17:45.001Z,99795.31
2023-11-01T13:20:14.602Z,99792.63
2023-11-01T13:22:41.370Z,99789.91
2023-11-01T13:25:08.261Z,99781.34
2023-11-01T13:27:38.557Z,99786.75
2023-11-01T13:30:06.863Z,99775.19
2023-11-01T13:32:34.570Z,99763.59
2023-11-01T13:35:02.143Z,99775.19
2023-11-01T13:37:32.627Z,99769.00
2023-11-01T13:40:04.962Z,99769.00
2023-11-01T13:42:31.742Z,99763.59
2023-11-01T13:44:59.644Z,99754.72
2023-11-01T13:47:32.042Z,99749.63
2023-11-01T13:50:00.880Z,99738.03
2023-11-01T13:52:30.642Z,99742.63
2023-11-01T13:55:03.371Z,99737.25
2023-11-01T13:57:37.247Z,99731.06
2023-11-01T14:00:07.800Z,99734.03
2023-11-01T14:02:36.082Z,99724.38
2023-11-01T14:05:03.794Z,99727.06
2023-11-01T14:07:31.372Z,99724.69
2023-11-01T14:09:58.545Z,99725.50
2023-11-01T14:12:29.514Z,99722.47
2023-11-01T14:14:59.537Z,99721.69
2023-11-01T14:17:27.354Z,99721.69
2023-11-01T14:19:54.607Z,99719.47
2023-11-01T14:22:22.179Z,99722.47
2023-11-01T14:24:51.292Z,99716.00
2023-11-01T14:27:18.753Z,99717.25
2023-11-01T14:29:45.694Z,99715.03
2023-11-01T14:32:12.503Z,99709.81
2023-11-01T14:34:39.664Z,99716.16
2023-11-01T14:37:14.255Z,99711.56
2023-11-01T14:39:41.093Z,99706.63
2023-11-01T14:42:12.183Z,99707.41
2023-11-01T14:44:39.252Z,99711.25
2023-11-01T14:47:09.855Z,99711.56
2023-11-01T14:49:36.898Z,99708.38
2023-11-01T14:52:03.901Z,99706.16
2023-11-01T14:54:31.207Z,99705.69
2023-11-01T14:56:57.953Z,99704.72
2023-11-01T14:59:24.970Z,99702.63
2023-11-01T15:01:51.930Z,99705.66
2023-11-01T15:04:18.688Z,99694.72
2023-11-01T15:06:45.852Z,99699.94
2023-11-01T15:09:16.604Z,99696.44
2023-11-01T15:12:14.467Z,99688.34
2023-11-01T15:14:43.745Z,99693.75
2023-11-01T15:22:34.475Z,99666.78
2023-11-01T15:25:03.105Z,99668.34
2023-11-01T15:27:30.160Z,99670.09
2023-11-01T15:29:59.515Z,99668.19
2023-11-01T15:32:26.303Z,99663.72
2023-11-01T15:34:53.138Z,99658.84
2023-11-01T15:37:21.498Z,99663.25
2023-11-01T15:39:50.811Z,99663.53
2023-11-01T15:42:20.509Z,99656.91
2023-11-01T15:44:47.264Z,99659.09
2023-11-01T15:47:16.286Z,99654.81
2023-11-01T15:49:43.147Z,99651.63
2023-11-01T15:52:09.964Z,99641.50
2023-11-01T15:54:39.788Z,99647.97
2023-11-01T15:57:06.758Z,99633.25
2023-11-01T15:59:36.593Z,99638.47
2023-11-01T16:02:04.088Z,99627.50
2023-11-01T16:04:33.153Z,99632.12
2023-11-01T16:07:00.062Z,99628.31
2023-11-01T16:09:26.852Z,99626.53
2023-11-01T16:11:53.818Z,99624.31
2023-11-01T16:14:20.696Z,99621.94
2023-11-01T16:16:47.632Z,99617.19
2023-11-01T16:19:14.520Z,99615.59
2023-11-01T16:21:44.961Z,99610.81
2023-11-01T16:24:13.041Z,99613.22
2023-11-01T16:26:47.128Z,99605.75
2023-11-01T16:29:17.313Z,99607.97
2023-11-01T16:31:44.183Z,99604.47
2023-11-01T16:34:12.775Z,99602.91
2023-11-01T16:36:39.621Z,99601.31
2023-11-01T16:39:06.653Z,99598.91
2023-11-01T16:41:33.463Z,99598.13
2023-11-01T16:44:01.279Z,99596.53
2023-11-01T16:51:45.858Z,99591.78
2023-11-01T16:59:45.808Z,99590.37
2023-11-01T17:04:50.694Z,99592.47
2023-11-01T17:07:20.889Z,99591.97
2023-11-01T17:09:58.143Z,99584.19
2023-11-01T17:12:26.307Z,99593.06
2023-11-01T17:14:54.200Z,99580.38
2023-11-01T17:17:22.643Z,99576.59
2023-11-01T17:19:53.571Z,99574.69
2023-11-01T17:22:46.059Z,99572.47
2023-11-01T17:25:37.911Z,99575.50
2023-11-01T17:28:05.880Z,99574.69
2023-11-01T17:30:33.485Z,99568.19
2023-11-01T17:33:01.133Z,99563.09
2023-11-01T17:35:42.286Z,99566.59
2023-11-01T17:38:32.452Z,99563.09
2023-11-01T17:41:02.123Z,99567.72
2023-11-01T17:43:55.188Z,99569.28
2023-11-01T17:46:25.394Z,99574.69
2023-11-01T17:48:56.892Z,99574.53
2023-11-01T17:51:31.540Z,99567.53
2023-11-01T17:54:02.083Z,99564.38
2023-11-01T17:56:29.379Z,99566.28
2023-11-01T17:59:00.195Z,99570.56
2023-11-01T18:01:27.358Z,99559.28
2023-11-01T18:03:55.538Z,99567.37
2023-11-01T18:06:26.740Z,99559.94
2023-11-01T18:08:53.700Z,99558.81
2023-11-01T18:11:20.542Z,99556.91
2023-11-01T18:13:50.786Z,99555.00
2023-11-01T18:16:30.947Z,99548.03
2023-11-01T18:18:57.906Z,99543.78
2023-11-01T18:21:31.900Z,99544.22
2023-11-01T18:24:10.878Z,99542.16
2023-11-01T18:26:40.724Z,99540.25
2023-11-01T18:29:11.247Z,99544.84
2023-11-01T18:31:43.899Z,99530.13
2023-11-01T18:34:15.173Z,99527.09
2023-11-01T18:36:47.037Z,99534.06
2023-11-01T18:39:24.401Z,99525.53
2023-11-01T18:41:57.547Z,99525.53
2023-11-01T18:44:28.311Z,99525.53
2023-11-01T18:46:57.666Z,99530.91
2023-11-01T18:49:36.477Z,99528.22
2023-11-01T18:52:03.323Z,99523.28
2023-11-01T18:54:41.513Z,99525.53
2023-11-01T18:57:15.803Z,99520.75
2023-11-01T18:59:44.632Z,99521.56
2023-11-01T19:02:37.860Z,99522.34
2023-11-01T19:05:11.944Z,99511.56
2023-11-01T19:07:40.594Z,99520.13
2023-11-01T19:10:12.722Z,99513.16
2023-11-01T19:12:40.157Z,99513.78
2023-11-01T19:15:47.872Z,99509.53
2023-11-01T19:18:18.233Z,99509.03
2023-11-01T19:20:46.567Z,99514.41
2023-11-01T19:23:19.742Z,99511.41
2023-11-01T19:25:50.043Z,99510.12
2023-11-01T19:28:17.731Z,99507.44
2023-11-01T19:30:44.665Z,99502.06
2023-11-01T19:33:22.368Z,99504.25
2023-11-01T19:35:59.151Z,99502.69
2023-11-01T19:38:31.097Z,99497.28
2023-11-01T19:40:57.907Z,99490.31
2023-11-01T19:43:24.901Z,99488.72
2023-11-01T19:45:51.917Z,99494.09
2023-11-01T19:48:21.704Z,99484.44
2023-11-01T19:50:48.663Z,99494.75
2023-11-01T19:53:15.352Z,99486.69
2023-11-01T19:55:42.372Z,99494.75
2023-11-01T19:58:09.127Z,99491.56
2023-11-01T20:00:35.834Z,99480.78
2023-11-01T20:03:05.659Z,99481.41
2023-11-01T20:05:35.009Z,99478.44
2023-11-01T20:08:01.722Z,99479.22
2023-11-01T20:10:28.508Z,99478.44
2023-11-01T20:12:55.731Z,99475.41
2023-11-01T20:15:22.695Z,99459.87
2023-11-01T20:17:52.784Z,99467.47
2023-11-01T20:20:20.916Z,99462.88
2023-11-01T20:22:50.910Z,99463.22
2023-11-01T20:25:18.118Z,99461.13
2023-11-01T20:27:48.219Z,99467.31
2023-11-01T20:30:18.452Z,99467.31
2023-11-01T20:32:46.910Z,99454.97
2023-11-01T20:35:16.245Z,99448.75
2023-11-01T20:37:44.026Z,99448.75
2023-11-01T20:40:24.509Z,99446.06
2023-11-01T20:42:51.840Z,99442.41
2023-11-01T20:45:20.274Z,99437.81
2023-11-01T20:47:47.563Z,99423.06
2023-11-01T20:50:14.915Z,99426.88
2023-11-01T20:52:42.860Z,99425.28
2023-11-01T20:55:10.256Z,99429.87
2023-11-01T20:57:37.524Z,99425.28
2023-11-01T21:00:05.667Z,99432.88
2023-11-01T21:02:33.228Z,99424.31
2023-11-01T21:05:03.268Z,99415.94
2023-11-01T21:07:33.711Z,99421.00
2023-11-01T21:10:06.041Z,99418.47
2023-11-01T21:12:37.251Z,99425.28
2023-11-01T21:15:07.823Z,99423.84
2023-11-01T21:17:38.277Z,99429.41
2023-11-01T21:20:10.098Z,99421.19
2023-11-01T21:22:40.445Z,99425.97
2023-11-01T21:25:14.793Z,99418.84
2023-11-01T21:27:44.663Z,99422.47
2023-11-01T21:30:12.927Z,99423.44
2023-11-01T21:32:43.339Z,99415.22
2023-11-01T21:35:14.907Z,99412.38
2023-11-01T21:37:43.895Z,99418.69
2023-11-01T21:40:17.874Z,99412.69
2023-11-01T21:42:46.106Z,99412.03
2023-11-01T21:45:20.318Z,99399.03
2023-11-01T21:47:51.299Z,99406.50
2023-11-01T21:50:48.961Z,99397.44
2023-11-01T21:53:19.751Z,99387.94
2023-11-01T21:56:01.451Z,99389.97
2023-11-01T21:58:33.078Z,99379.69
2023-11-01T22:01:09.231Z,99381.25
2023-11-01T22:03:49.744Z,99390.91
2023-11-01T22:06:29.270Z,99387.94
2023-11-01T22:09:06.571Z,99381.41
2023-11-01T22:11:40.955Z,99377.75
2023-11-01T22:14:22.124Z,99378.88
2023-11-01T22:16:52.627Z,99377.13
2023-11-01T22:19:36.240Z,99367.13
2023-11-01T22:22:24.765Z,99361.72
2023-11-01T22:24:53.526Z,99365.69
2023-11-01T22:27:38.116Z,99365.69
2023-11-01T22:30:08.858Z,99363.00
2023-11-01T22:32:42.833Z,99355.38
2023-11-01T22:35:13.064Z,99357.62
2023-11-01T22:37:43.968Z,99349.19
2023-11-01T22:40:13.942Z,99351.09
2023-11-01T22:42:42.785Z,99339.53
2023-11-01T22:45:13.410Z,99336.50
2023-11-01T22:47:41.326Z,99330.97
2023-11-01T22:50:12.605Z,99333.34
2023-11-01T22:52:46.096Z,99326.50
2023-11-01T22:55:14.060Z,99323.50
2023-11-01T22:57:44.055Z,99316.53
2023-11-01T23:00:12.947Z,99316.19
2023-11-01T23:02:45.995Z,99305.09
2023-11-01T23:05:19.607Z,99298.75
2023-11-01T23:07:49.519Z,99294.47
2023-11-01T23:10:23.597Z,99294.66
2023-11-01T23:12:58.462Z,99290.22
2023-11-01T23:15:29.093Z,99281.78
2023-11-01T23:18:02.466Z,99290.22
2023-11-01T23:20:34.989Z,99288.44
2023-11-01T23:23:02.550Z,99284.34
2023-11-01T23:25:32.677Z,99280.66
2023-11-01T23:28:19.271Z,99286.88
2023-11-01T23:30:53.109Z,99285.75
2023-11-01T23:33:49.275Z,99282.56
2023-11-01T23:36:26.490Z,99281.00
2023-11-01T23:38:56.330Z,99285.75
2023-11-01T23:41:47.624Z,99281.94
2023-11-01T23:44:17.294Z,99274.03
2023-11-01T23:46:44.914Z,99277.03
2023-11-01T23:52:31.924Z,99274.81
2023-11-01T23:55:06.084Z,99272.13
2023-11-01T23:57:40.035Z,99268.00
